Time,TemperatureF,DewpointF,PressureIn,WindDirection,WindDirectionDegrees,WindSpeedMPH,WindSpeedGustMPH,Humidity,HourlyPrecipIn,Conditions,Clouds,dailyrainin,SolarRadiationWatts/m^2,SoftwareType,DateUTC
2013-11-29 00:05:00,32.2,30.4,30.45,ESE,115,0.0,1.0,93,0.00,,,2.58,0,Wunderground v.1.15,2013-11-29 05:05:00,
2013-11-29 00:15:00,32.0,30.2,30.46,ESE,115,0.0,1.0,93,0.00,,,2.58,0,Wunderground v.1.15,2013-11-29 05:15:00,
2013-11-29 00:20:00,31.8,30.0,30.46,ESE,115,0.0,1.0,93,0.00,,,2.58,0,Wunderground v.1.15,2013-11-29 05:20:00,
2013-11-29 00:30:00,31.8,30.3,30.45,ESE,115,0.0,1.0,94,0.00,,,2.58,0,Wunderground v.1.15,2013-11-29 05:30:00,
2013-11-29 00:40:00,31.7,30.2,30.46,ESE,115,0.0,1.0,94,0.00,,,2.58,0,Wunderground v.1.15,2013-11-29 05:40:00,
2013-11-29 00:50:00,31.4,29.9,30.46,ESE,115,0.0,1.0,94,0.00,,,2.58,0,Wunderground v.1.15,2013-11-29 05:50:00,
2013-11-29 00:55:00,31.1,29.6,30.46,ESE,115,0.0,1.0,94,0.00,,,2.58,0,Wunderground v.1.15,2013-11-29 05:55:00,
2013-11-29 01:00:00,30.9,29.4,30.46,ESE,115,0.0,0.0,94,0.00,,,2.58,0,Wunderground v.1.15,2013-11-29 06:00:00,
2013-11-29 01:10:00,30.8,29.3,30.46,ESE,115,0.0,0.0,94,0.00,,,0.00,0,Wunderground v.1.15,2013-11-29 06:10:00,
2013-11-29 01:20:00,30.6,29.1,30.46,ESE,115,0.0,0.0,94,0.00,,,0.00,0,Wunderground v.1.15,2013-11-29 06:20:00,
2013-11-29 01:30:00,30.6,29.1,30.46,ESE,115,0.0,0.0,94,0.00,,,0.00,0,Wunderground v.1.15,2013-11-29 06:30:00,
2013-11-29 01:35:00,30.5,29.0,30.46,ESE,115,0.0,0.0,94,0.00,,,0.00,0,Wunderground v.1.15,2013-11-29 06:35:00,
2013-11-29 01:45:00,30.3,28.8,30.46,ESE,115,0.0,0.0,94,0.00,,,0.00,0,Wunderground v.1.15,2013-11-29 06:45:00,
2013-11-29 01:50:00,30.2,28.9,30.46,ESE,115,0.0,0.0,95,0.00,,,0.00,0,Wunderground v.1.15,2013-11-29 06:50:00,
2013-11-29 01:55:00,30.4,29.1,30.46,ESE,115,0.0,0.0,95,0.00,,,0.00,0,Wunderground v.1.15,2013-11-29 06:55:00,
2013-11-29 02:05:00,30.4,29.1,30.46,ESE,115,0.0,0.0,95,0.00,,,0.00,0,Wunderground v.1.15,2013-11-29 07:05:00,
2013-11-29 02:10:00,30.4,29.1,30.46,ESE,115,0.0,0.0,95,0.00,,,0.00,0,Wunderground v.1.15,2013-11-29 07:10:00,
2013-11-29 02:20:00,30.3,29.0,30.46,ESE,115,0.0,0.0,95,0.00,,,0.00,0,Wunderground v.1.15,2013-11-29 07:20:00,
2013-11-29 02:25:00,30.3,29.0,30.46,ESE,115,0.0,0.0,95,0.00,,,0.00,0,Wunderground v.1.15,2013-11-29 07:25:00,
2013-11-29 02:30:00,30.2,28.9,30.46,ESE,115,0.0,0.0,95,0.00,,,0.00,0,Wunderground v.1.15,2013-11-29 07:30:00,
2013-11-29 02:40:00,30.1,28.8,30.46,ESE,115,0.0,0.0,95,0.00,,,0.00,0,Wunderground v.1.15,2013-11-29 07:40:00,
2013-11-29 02:50:00,29.8,28.3,30.46,ESE,115,0.0,0.0,94,0.00,,,0.00,0,Wunderground v.1.15,2013-11-29 07:50:00,
2013-11-29 03:00:00,29.6,28.1,30.45,ESE,115,0.0,0.0,94,0.00,,,0.00,0,Wunderground v.1.15,2013-11-29 08:00:00,
2013-11-29 03:05:00,29.5,28.0,30.45,ESE,115,0.0,0.0,94,0.00,,,0.00,0,Wunderground v.1.15,2013-11-29 08:05:00,
2013-11-29 03:10:00,29.6,28.1,30.46,ESE,115,0.0,0.0,94,0.00,,,0.00,0,Wunderground v.1.15,2013-11-29 08:10:00,
2013-11-29 03:20:00,29.6,28.1,30.45,ESE,115,0.0,0.0,94,0.00,,,0.00,0,Wunderground v.1.15,2013-11-29 08:20:00,
2013-11-29 03:30:00,29.6,28.1,30.45,ESE,115,0.0,0.0,94,0.00,,,0.00,0,Wunderground v.1.15,2013-11-29 08:30:00,
2013-11-29 03:35:00,29.6,28.1,30.45,ESE,115,0.0,0.0,94,0.00,,,0.00,0,Wunderground v.1.15,2013-11-29 08:35:00,
2013-11-29 03:45:00,29.4,27.9,30.46,ESE,115,0.0,0.0,94,0.00,,,0.00,0,Wunderground v.1.15,2013-11-29 08:45:00,
2013-11-29 03:55:00,29.2,27.7,30.46,ESE,115,0.0,0.0,94,0.00,,,0.00,0,Wunderground v.1.15,2013-11-29 08:55:00,
2013-11-29 04:05:00,29.1,27.8,30.46,ESE,115,0.0,0.0,95,0.00,,,0.00,0,Wunderground v.1.15,2013-11-29 09:05:00,
2013-11-29 04:15:00,29.0,27.5,30.46,ESE,115,0.0,0.0,94,0.00,,,0.00,0,Wunderground v.1.15,2013-11-29 09:15:00,
2013-11-29 04:25:00,28.8,27.3,30.45,ESE,115,0.0,0.0,94,0.00,,,0.00,0,Wunderground v.1.15,2013-11-29 09:25:00,
2013-11-29 04:30:00,28.8,27.3,30.45,ESE,115,0.0,0.0,94,0.00,,,0.00,0,Wunderground v.1.15,2013-11-29 09:30:00,
2013-11-29 04:35:00,28.8,27.5,30.46,ESE,115,0.0,0.0,95,0.00,,,0.00,0,Wunderground v.1.15,2013-11-29 09:35:00,
2013-11-29 04:45:00,28.7,27.2,30.47,ESE,115,0.0,0.0,94,0.00,,,0.00,0,Wunderground v.1.15,2013-11-29 09:45:00,
2013-11-29 04:55:00,28.9,27.6,30.46,ESE,115,0.0,0.0,95,0.00,,,0.00,0,Wunderground v.1.15,2013-11-29 09:55:00,
2013-11-29 05:05:00,28.8,27.3,30.46,ESE,115,0.0,0.0,94,0.00,,,0.00,0,Wunderground v.1.15,2013-11-29 10:05:00,
2013-11-29 05:10:00,28.8,27.5,30.46,ESE,115,0.0,0.0,95,0.00,,,0.00,0,Wunderground v.1.15,2013-11-29 10:10:00,
2013-11-29 05:15:00,28.9,27.4,30.46,ESE,115,0.0,1.0,94,0.00,,,0.00,0,Wunderground v.1.15,2013-11-29 10:15:00,
2013-11-29 05:25:00,28.5,27.0,30.47,SE,134,0.0,1.0,94,0.00,,,0.00,0,Wunderground v.1.15,2013-11-29 10:25:00,
2013-11-29 05:35:00,28.7,27.4,30.47,SE,134,0.0,0.0,95,0.00,,,0.00,0,Wunderground v.1.15,2013-11-29 10:35:00,
2013-11-29 05:40:00,28.7,27.2,30.47,SE,134,0.0,0.0,94,0.00,,,0.00,0,Wunderground v.1.15,2013-11-29 10:40:00,
2013-11-29 05:50:00,28.5,27.3,30.47,SE,134,0.0,0.0,95,0.00,,,0.00,0,Wunderground v.1.15,2013-11-29 10:50:00,
2013-11-29 05:55:00,28.5,27.3,30.47,SE,134,0.0,0.0,95,0.00,,,0.00,0,Wunderground v.1.15,2013-11-29 10:55:00,
2013-11-29 06:05:00,28.4,27.2,30.47,SE,134,0.0,0.0,95,0.00,,,0.00,0,Wunderground v.1.15,2013-11-29 11:05:00,
2013-11-29 06:10:00,28.3,26.8,30.47,SE,134,0.0,0.0,94,0.00,,,0.00,0,Wunderground v.1.15,2013-11-29 11:10:00,
2013-11-29 06:20:00,28.2,26.7,30.48,SE,134,0.0,0.0,94,0.00,,,0.00,0,Wunderground v.1.15,2013-11-29 11:20:00,
2013-11-29 06:30:00,28.1,26.9,30.48,SE,134,0.0,0.0,95,0.00,,,0.00,0,Wunderground v.1.15,2013-11-29 11:30:00,
2013-11-29 06:40:00,28.0,26.8,30.48,SE,134,0.0,0.0,95,0.00,,,0.00,0,Wunderground v.1.15,2013-11-29 11:40:00,
2013-11-29 06:50:00,28.0,26.8,30.48,SE,134,0.0,0.0,95,0.00,,,0.00,0,Wunderground v.1.15,2013-11-29 11:50:00,
2013-11-29 07:00:00,28.1,26.9,30.49,SE,134,0.0,0.0,95,0.00,,,0.00,0,Wunderground v.1.15,2013-11-29 12:00:00,
2013-11-29 07:10:00,28.0,26.8,30.49,SE,134,0.0,1.0,95,0.00,,,0.00,0,Wunderground v.1.15,2013-11-29 12:10:00,
2013-11-29 07:15:00,28.0,26.8,30.49,SE,134,0.0,1.0,95,0.00,,,0.00,0,Wunderground v.1.15,2013-11-29 12:15:00,
2013-11-29 07:25:00,27.9,26.7,30.49,SE,134,0.0,1.0,95,0.00,,,0.00,0,Wunderground v.1.15,2013-11-29 12:25:00,
2013-11-29 07:35:00,27.8,26.6,30.49,SE,134,0.0,1.0,95,0.00,,,0.00,0,Wunderground v.1.15,2013-11-29 12:35:00,
2013-11-29 07:45:00,27.9,26.4,30.49,SE,134,0.0,1.0,94,0.00,,,0.00,0,Wunderground v.1.15,2013-11-29 12:45:00,
2013-11-29 07:50:00,27.8,26.3,30.49,SE,134,0.0,1.0,94,0.00,,,0.00,0,Wunderground v.1.15,2013-11-29 12:50:00,
2013-11-29 08:00:00,28.0,26.8,30.50,SE,134,0.0,1.0,95,0.00,,,0.00,5,Wunderground v.1.15,2013-11-29 13:00:00,
2013-11-29 08:10:00,28.1,26.6,30.50,SE,134,0.0,1.0,94,0.00,,,0.00,9,Wunderground v.1.15,2013-11-29 13:10:00,
2013-11-29 08:15:00,28.0,26.5,30.50,SE,134,0.0,1.0,94,0.00,,,0.00,11,Wunderground v.1.15,2013-11-29 13:15:00,
2013-11-29 08:25:00,28.2,26.7,30.50,SE,134,0.0,1.0,94,0.00,,,0.00,12,Wunderground v.1.15,2013-11-29 13:25:00,